Terminal Aerodrome Forecast
Issued by NWS Twin Cities, MN

Home | Current Version | Previous Version | Text Only | Print | Product List | Glossary Off
Versions: 1 2 3 4 5 6 7 8 9 10 11 12 13 14 15 16 17 18 19 20 21

000
FTUS43 KMPX 260500 AAA
TAFSTC
TAF AMD
KSTC 260515Z 2605/2624 VRB02KT 2SM BR SKC
      TEMPO 2606/2608 1/2SM FG VV006
     FM260900 28005KT 6SM BR FEW008
     FM261800 26011KT P6SM SKC
     FM262000 26012G18KT P6SM SCT050=

USA.gov is the U.S. government's official web portal to all federal, state and local government web resources and services.